sensor_id;sensor_type;location;lat;lon;timestamp;P1;durP1;ratioP1;P2;durP2;ratioP2
13026;SDS011;6580;42.680;23.324;2022-07-10T00:01:12;13.63;;;12.43;;
13026;SDS011;6580;42.680;23.324;2022-07-10T00:03:40;12.60;;;11.60;;
13026;SDS011;6580;42.680;23.324;2022-07-10T00:06:09;12.90;;;11.90;;
13026;SDS011;6580;42.680;23.324;2022-07-10T00:08:36;13.15;;;12.10;;
13026;SDS011;6580;42.680;23.324;2022-07-10T00:11:03;12.83;;;11.83;;
13026;SDS011;6580;42.680;23.324;2022-07-10T00:13:31;13.47;;;12.37;;
13026;SDS011;6580;42.680;23.324;2022-07-10T00:15:58;13.23;;;12.00;;
13026;SDS011;6580;42.680;23.324;2022-07-10T00:18:27;13.00;;;12.00;;
13026;SDS011;6580;42.680;23.324;2022-07-10T00:20:53;12.98;;;11.98;;
13026;SDS011;6580;42.680;23.324;2022-07-10T00:23:22;13.53;;;12.43;;
13026;SDS011;6580;42.680;23.324;2022-07-10T00:25:49;13.52;;;12.38;;
13026;SDS011;6580;42.680;23.324;2022-07-10T00:28:15;13.20;;;12.10;;
13026;SDS011;6580;42.680;23.324;2022-07-10T00:30:44;13.67;;;12.47;;
13026;SDS011;6580;42.680;23.324;2022-07-10T00:33:10;13.57;;;12.30;;
13026;SDS011;6580;42.680;23.324;2022-07-10T00:35:37;14.40;;;12.90;;
13026;SDS011;6580;42.680;23.324;2022-07-10T00:38:04;13.30;;;12.30;;
13026;SDS011;6580;42.680;23.324;2022-07-10T00:40:31;13.95;;;12.75;;
13026;SDS011;6580;42.680;23.324;2022-07-10T00:42:57;13.80;;;12.70;;
13026;SDS011;6580;42.680;23.324;2022-07-10T00:45:24;13.40;;;12.40;;
13026;SDS011;6580;42.680;23.324;2022-07-10T00:47:54;13.45;;;12.15;;
13026;SDS011;6580;42.680;23.324;2022-07-10T00:50:21;14.03;;;12.83;;
13026;SDS011;6580;42.680;23.324;2022-07-10T00:52:47;13.27;;;11.93;;
13026;SDS011;6580;42.680;23.324;2022-07-10T00:58:09;14.00;;;12.83;;
13026;SDS011;6580;42.680;23.324;2022-07-10T01:00:38;13.40;;;12.20;;
13026;SDS011;6580;42.680;23.324;2022-07-10T01:03:07;12.67;;;11.67;;
13026;SDS011;6580;42.680;23.324;2022-07-10T01:05:34;12.70;;;11.60;;
13026;SDS011;6580;42.680;23.324;2022-07-10T01:08:01;12.73;;;11.63;;
13026;SDS011;6580;42.680;23.324;2022-07-10T01:10:28;13.43;;;12.30;;
13026;SDS011;6580;42.680;23.324;2022-07-10T01:12:55;12.60;;;11.53;;
13026;SDS011;6580;42.680;23.324;2022-07-10T01:15:22;12.87;;;11.77;;
13026;SDS011;6580;42.680;23.324;2022-07-10T01:17:49;14.30;;;13.10;;
13026;SDS011;6580;42.680;23.324;2022-07-10T01:20:19;13.55;;;12.25;;
13026;SDS011;6580;42.680;23.324;2022-07-10T01:22:47;13.30;;;12.10;;
13026;SDS011;6580;42.680;23.324;2022-07-10T01:25:14;13.30;;;12.10;;
13026;SDS011;6580;42.680;23.324;2022-07-10T01:27:41;13.90;;;12.90;;
13026;SDS011;6580;42.680;23.324;2022-07-10T01:30:11;13.80;;;12.70;;
13026;SDS011;6580;42.680;23.324;2022-07-10T01:32:38;12.80;;;11.60;;
13026;SDS011;6580;42.680;23.324;2022-07-10T01:35:05;13.13;;;12.07;;
13026;SDS011;6580;42.680;23.324;2022-07-10T01:37:33;13.03;;;11.93;;
13026;SDS011;6580;42.680;23.324;2022-07-10T01:40:02;12.80;;;11.70;;
13026;SDS011;6580;42.680;23.324;2022-07-10T01:42:29;13.33;;;12.03;;
13026;SDS011;6580;42.680;23.324;2022-07-10T01:44:56;12.27;;;11.20;;
13026;SDS011;6580;42.680;23.324;2022-07-10T01:47:23;13.20;;;11.90;;
13026;SDS011;6580;42.680;23.324;2022-07-10T01:49:51;12.93;;;11.80;;
13026;SDS011;6580;42.680;23.324;2022-07-10T01:52:18;12.83;;;11.73;;
13026;SDS011;6580;42.680;23.324;2022-07-10T01:54:46;13.33;;;12.00;;
13026;SDS011;6580;42.680;23.324;2022-07-10T01:57:14;12.60;;;11.53;;
13026;SDS011;6580;42.680;23.324;2022-07-10T01:59:41;12.50;;;11.50;;
13026;SDS011;6580;42.680;23.324;2022-07-10T02:02:08;12.17;;;11.07;;
13026;SDS011;6580;42.680;23.324;2022-07-10T02:04:35;12.03;;;11.10;;
13026;SDS011;6580;42.680;23.324;2022-07-10T02:07:07;10.97;;;10.07;;
13026;SDS011;6580;42.680;23.324;2022-07-10T02:09:36;11.53;;;10.60;;
13026;SDS011;6580;42.680;23.324;2022-07-10T02:12:04;12.37;;;11.17;;
13026;SDS011;6580;42.680;23.324;2022-07-10T02:14:33;12.90;;;11.80;;
13026;SDS011;6580;42.680;23.324;2022-07-10T02:17:00;12.23;;;11.00;;
13026;SDS011;6580;42.680;23.324;2022-07-10T02:19:26;11.83;;;10.83;;
13026;SDS011;6580;42.680;23.324;2022-07-10T02:21:53;11.83;;;10.83;;
13026;SDS011;6580;42.680;23.324;2022-07-10T02:24:20;12.00;;;11.00;;
13026;SDS011;6580;42.680;23.324;2022-07-10T02:26:47;11.80;;;10.77;;
13026;SDS011;6580;42.680;23.324;2022-07-10T02:29:14;13.03;;;11.83;;
13026;SDS011;6580;42.680;23.324;2022-07-10T02:31:43;12.30;;;11.37;;
13026;SDS011;6580;42.680;23.324;2022-07-10T02:34:10;12.57;;;11.43;;
13026;SDS011;6580;42.680;23.324;2022-07-10T02:36:39;11.63;;;10.73;;
13026;SDS011;6580;42.680;23.324;2022-07-10T02:39:07;12.47;;;11.43;;
13026;SDS011;6580;42.680;23.324;2022-07-10T02:41:34;12.40;;;11.23;;
13026;SDS011;6580;42.680;23.324;2022-07-10T02:44:02;12.10;;;11.10;;
13026;SDS011;6580;42.680;23.324;2022-07-10T02:46:29;12.63;;;11.53;;
13026;SDS011;6580;42.680;23.324;2022-07-10T02:48:57;12.57;;;11.40;;
13026;SDS011;6580;42.680;23.324;2022-07-10T02:51:24;12.43;;;11.53;;
13026;SDS011;6580;42.680;23.324;2022-07-10T02:53:50;12.37;;;11.37;;
13026;SDS011;6580;42.680;23.324;2022-07-10T02:56:17;11.93;;;10.83;;
13026;SDS011;6580;42.680;23.324;2022-07-10T02:58:44;12.03;;;10.93;;
13026;SDS011;6580;42.680;23.324;2022-07-10T03:01:11;12.57;;;11.57;;
13026;SDS011;6580;42.680;23.324;2022-07-10T03:03:37;12.57;;;11.47;;
13026;SDS011;6580;42.680;23.324;2022-07-10T03:06:06;11.83;;;10.73;;
13026;SDS011;6580;42.680;23.324;2022-07-10T03:08:33;12.80;;;11.50;;
13026;SDS011;6580;42.680;23.324;2022-07-10T03:10:59;12.10;;;11.03;;
13026;SDS011;6580;42.680;23.324;2022-07-10T03:13:26;12.17;;;11.17;;
13026;SDS011;6580;42.680;23.324;2022-07-10T03:15:53;11.30;;;10.30;;
13026;SDS011;6580;42.680;23.324;2022-07-10T03:18:20;12.00;;;11.00;;
13026;SDS011;6580;42.680;23.324;2022-07-10T03:20:47;12.47;;;11.37;;
13026;SDS011;6580;42.680;23.324;2022-07-10T03:23:15;11.77;;;10.77;;
13026;SDS011;6580;42.680;23.324;2022-07-10T03:25:42;10.93;;;10.03;;
13026;SDS011;6580;42.680;23.324;2022-07-10T03:28:09;11.93;;;10.90;;
13026;SDS011;6580;42.680;23.324;2022-07-10T03:30:35;11.70;;;10.70;;
13026;SDS011;6580;42.680;23.324;2022-07-10T03:33:02;11.27;;;10.27;;
13026;SDS011;6580;42.680;23.324;2022-07-10T03:35:29;11.57;;;10.53;;
13026;SDS011;6580;42.680;23.324;2022-07-10T03:37:57;11.93;;;10.93;;
13026;SDS011;6580;42.680;23.324;2022-07-10T03:40:25;12.47;;;11.37;;
13026;SDS011;6580;42.680;23.324;2022-07-10T03:42:53;11.57;;;10.57;;
13026;SDS011;6580;42.680;23.324;2022-07-10T03:45:20;11.90;;;10.90;;
13026;SDS011;6580;42.680;23.324;2022-07-10T03:47:47;11.77;;;10.87;;
13026;SDS011;6580;42.680;23.324;2022-07-10T03:50:14;11.43;;;10.50;;
13026;SDS011;6580;42.680;23.324;2022-07-10T03:52:41;11.10;;;10.10;;
13026;SDS011;6580;42.680;23.324;2022-07-10T03:55:09;12.90;;;11.70;;
13026;SDS011;6580;42.680;23.324;2022-07-10T03:57:38;11.97;;;10.93;;
13026;SDS011;6580;42.680;23.324;2022-07-10T04:00:19;11.13;;;10.13;;
13026;SDS011;6580;42.680;23.324;2022-07-10T04:02:53;11.73;;;10.77;;
13026;SDS011;6580;42.680;23.324;2022-07-10T04:05:24;12.03;;;10.83;;
13026;SDS011;6580;42.680;23.324;2022-07-10T04:07:51;12.30;;;10.97;;
13026;SDS011;6580;42.680;23.324;2022-07-10T04:10:18;11.07;;;10.18;;
13026;SDS011;6580;42.680;23.324;2022-07-10T04:12:47;10.93;;;9.93;;
13026;SDS011;6580;42.680;23.324;2022-07-10T04:15:14;10.60;;;9.73;;
13026;SDS011;6580;42.680;23.324;2022-07-10T04:17:41;10.77;;;9.87;;
13026;SDS011;6580;42.680;23.324;2022-07-10T04:20:09;11.25;;;10.15;;
13026;SDS011;6580;42.680;23.324;2022-07-10T04:22:36;11.43;;;10.53;;
13026;SDS011;6580;42.680;23.324;2022-07-10T04:25:04;10.97;;;9.97;;
13026;SDS011;6580;42.680;23.324;2022-07-10T04:27:31;11.03;;;10.07;;
13026;SDS011;6580;42.680;23.324;2022-07-10T04:29:59;10.93;;;10.03;;
13026;SDS011;6580;42.680;23.324;2022-07-10T04:32:26;11.57;;;10.60;;
13026;SDS011;6580;42.680;23.324;2022-07-10T04:34:54;9.73;;;8.97;;
13026;SDS011;6580;42.680;23.324;2022-07-10T04:37:21;10.90;;;9.82;;
13026;SDS011;6580;42.680;23.324;2022-07-10T04:39:48;10.67;;;9.87;;
13026;SDS011;6580;42.680;23.324;2022-07-10T04:42:15;10.37;;;9.47;;
13026;SDS011;6580;42.680;23.324;2022-07-10T04:44:42;9.77;;;9.07;;
13026;SDS011;6580;42.680;23.324;2022-07-10T04:47:10;9.40;;;8.55;;
13026;SDS011;6580;42.680;23.324;2022-07-10T04:49:37;9.82;;;8.80;;
13026;SDS011;6580;42.680;23.324;2022-07-10T04:52:04;10.53;;;9.73;;
13026;SDS011;6580;42.680;23.324;2022-07-10T04:54:33;9.55;;;8.85;;
13026;SDS011;6580;42.680;23.324;2022-07-10T04:57:02;9.82;;;8.93;;
13026;SDS011;6580;42.680;23.324;2022-07-10T04:59:29;9.32;;;8.52;;
13026;SDS011;6580;42.680;23.324;2022-07-10T05:01:56;10.32;;;9.32;;
13026;SDS011;6580;42.680;23.324;2022-07-10T05:04:24;9.73;;;8.93;;
13026;SDS011;6580;42.680;23.324;2022-07-10T05:06:51;9.10;;;8.33;;
13026;SDS011;6580;42.680;23.324;2022-07-10T05:09:18;9.90;;;8.98;;
13026;SDS011;6580;42.680;23.324;2022-07-10T05:11:45;8.88;;;8.18;;
13026;SDS011;6580;42.680;23.324;2022-07-10T05:14:12;9.47;;;8.57;;
13026;SDS011;6580;42.680;23.324;2022-07-10T05:16:39;9.07;;;8.25;;
13026;SDS011;6580;42.680;23.324;2022-07-10T05:19:05;9.43;;;8.57;;
13026;SDS011;6580;42.680;23.324;2022-07-10T05:21:33;8.23;;;7.43;;
13026;SDS011;6580;42.680;23.324;2022-07-10T05:24:00;8.70;;;8.00;;
13026;SDS011;6580;42.680;23.324;2022-07-10T05:26:27;8.70;;;8.00;;
13026;SDS011;6580;42.680;23.324;2022-07-10T05:28:54;8.07;;;7.38;;
13026;SDS011;6580;42.680;23.324;2022-07-10T05:31:23;8.05;;;7.38;;
13026;SDS011;6580;42.680;23.324;2022-07-10T05:33:50;7.75;;;7.15;;
13026;SDS011;6580;42.680;23.324;2022-07-10T05:36:17;8.13;;;7.43;;
13026;SDS011;6580;42.680;23.324;2022-07-10T05:38:48;8.43;;;7.68;;
13026;SDS011;6580;42.680;23.324;2022-07-10T05:41:15;8.10;;;7.40;;
13026;SDS011;6580;42.680;23.324;2022-07-10T05:43:43;7.43;;;6.82;;
13026;SDS011;6580;42.680;23.324;2022-07-10T05:46:09;7.88;;;7.25;;
13026;SDS011;6580;42.680;23.324;2022-07-10T05:48:36;8.23;;;7.53;;
13026;SDS011;6580;42.680;23.324;2022-07-10T05:51:04;8.15;;;7.57;;
13026;SDS011;6580;42.680;23.324;2022-07-10T05:53:31;7.63;;;6.85;;
13026;SDS011;6580;42.680;23.324;2022-07-10T05:56:01;7.65;;;7.00;;
13026;SDS011;6580;42.680;23.324;2022-07-10T05:58:31;7.47;;;6.88;;
13026;SDS011;6580;42.680;23.324;2022-07-10T06:00:58;6.20;;;5.70;;
13026;SDS011;6580;42.680;23.324;2022-07-10T06:03:24;6.40;;;6.00;;
13026;SDS011;6580;42.680;23.324;2022-07-10T06:05:52;6.35;;;5.75;;
13026;SDS011;6580;42.680;23.324;2022-07-10T06:08:21;6.10;;;5.70;;
13026;SDS011;6580;42.680;23.324;2022-07-10T06:10:47;5.97;;;5.43;;
13026;SDS011;6580;42.680;23.324;2022-07-10T06:13:21;6.32;;;5.82;;
13026;SDS011;6580;42.680;23.324;2022-07-10T06:15:47;6.10;;;5.68;;
13026;SDS011;6580;42.680;23.324;2022-07-10T06:18:14;5.95;;;5.43;;
13026;SDS011;6580;42.680;23.324;2022-07-10T06:20:42;5.85;;;5.45;;
13026;SDS011;6580;42.680;23.324;2022-07-10T06:23:12;6.32;;;5.82;;
13026;SDS011;6580;42.680;23.324;2022-07-10T06:25:39;6.22;;;5.72;;
13026;SDS011;6580;42.680;23.324;2022-07-10T06:28:05;5.45;;;4.95;;
13026;SDS011;6580;42.680;23.324;2022-07-10T06:30:37;6.90;;;5.30;;
13026;SDS011;6580;42.680;23.324;2022-07-10T06:33:04;5.93;;;5.50;;
13026;SDS011;6580;42.680;23.324;2022-07-10T06:35:31;5.10;;;4.70;;
13026;SDS011;6580;42.680;23.324;2022-07-10T06:37:58;5.35;;;4.85;;
13026;SDS011;6580;42.680;23.324;2022-07-10T06:40:25;5.43;;;4.95;;
13026;SDS011;6580;42.680;23.324;2022-07-10T06:42:57;5.63;;;4.97;;
13026;SDS011;6580;42.680;23.324;2022-07-10T06:45:24;5.75;;;5.25;;
13026;SDS011;6580;42.680;23.324;2022-07-10T06:47:53;5.93;;;5.50;;
13026;SDS011;6580;42.680;23.324;2022-07-10T06:50:25;5.68;;;5.28;;
13026;SDS011;6580;42.680;23.324;2022-07-10T06:52:54;4.97;;;4.50;;
13026;SDS011;6580;42.680;23.324;2022-07-10T06:55:22;5.43;;;5.03;;
13026;SDS011;6580;42.680;23.324;2022-07-10T06:57:49;5.65;;;5.15;;
13026;SDS011;6580;42.680;23.324;2022-07-10T07:00:16;5.00;;;4.60;;
13026;SDS011;6580;42.680;23.324;2022-07-10T07:02:43;5.50;;;4.95;;
13026;SDS011;6580;42.680;23.324;2022-07-10T07:05:12;7.30;;;5.40;;
13026;SDS011;6580;42.680;23.324;2022-07-10T07:07:39;5.05;;;4.60;;
13026;SDS011;6580;42.680;23.324;2022-07-10T07:10:06;5.85;;;4.75;;
13026;SDS011;6580;42.680;23.324;2022-07-10T07:12:34;5.28;;;4.60;;
13026;SDS011;6580;42.680;23.324;2022-07-10T07:15:01;4.80;;;4.40;;
13026;SDS011;6580;42.680;23.324;2022-07-10T07:17:29;5.97;;;5.45;;
13026;SDS011;6580;42.680;23.324;2022-07-10T07:20:01;5.28;;;4.78;;
13026;SDS011;6580;42.680;23.324;2022-07-10T07:22:47;5.18;;;4.78;;
13026;SDS011;6580;42.680;23.324;2022-07-10T07:25:31;5.13;;;4.70;;
13026;SDS011;6580;42.680;23.324;2022-07-10T07:27:58;5.70;;;4.65;;
13026;SDS011;6580;42.680;23.324;2022-07-10T07:30:24;5.80;;;5.25;;
13026;SDS011;6580;42.680;23.324;2022-07-10T07:32:51;5.30;;;4.90;;
13026;SDS011;6580;42.680;23.324;2022-07-10T07:35:18;5.00;;;4.60;;
13026;SDS011;6580;42.680;23.324;2022-07-10T07:37:48;5.43;;;4.78;;
13026;SDS011;6580;42.680;23.324;2022-07-10T07:40:16;7.25;;;4.28;;
13026;SDS011;6580;42.680;23.324;2022-07-10T07:42:46;5.78;;;4.75;;
13026;SDS011;6580;42.680;23.324;2022-07-10T07:45:13;4.85;;;4.45;;
13026;SDS011;6580;42.680;23.324;2022-07-10T07:47:44;5.53;;;4.40;;
13026;SDS011;6580;42.680;23.324;2022-07-10T07:50:12;4.65;;;4.25;;
13026;SDS011;6580;42.680;23.324;2022-07-10T07:52:40;4.97;;;4.47;;
13026;SDS011;6580;42.680;23.324;2022-07-10T07:55:10;4.60;;;4.13;;
13026;SDS011;6580;42.680;23.324;2022-07-10T07:57:37;10.02;;;9.13;;
13026;SDS011;6580;42.680;23.324;2022-07-10T08:00:05;5.10;;;4.55;;
13026;SDS011;6580;42.680;23.324;2022-07-10T08:02:33;5.25;;;4.43;;
13026;SDS011;6580;42.680;23.324;2022-07-10T08:05:00;4.18;;;3.88;;
13026;SDS011;6580;42.680;23.324;2022-07-10T08:07:32;6.00;;;4.15;;
13026;SDS011;6580;42.680;23.324;2022-07-10T08:10:00;5.47;;;4.60;;
13026;SDS011;6580;42.680;23.324;2022-07-10T08:12:28;5.47;;;3.95;;
13026;SDS011;6580;42.680;23.324;2022-07-10T08:14:55;4.53;;;3.85;;
13026;SDS011;6580;42.680;23.324;2022-07-10T08:17:23;3.95;;;3.65;;
13026;SDS011;6580;42.680;23.324;2022-07-10T08:19:50;4.40;;;4.10;;
13026;SDS011;6580;42.680;23.324;2022-07-10T08:22:16;5.15;;;3.92;;
13026;SDS011;6580;42.680;23.324;2022-07-10T08:24:43;3.95;;;3.65;;
13026;SDS011;6580;42.680;23.324;2022-07-10T08:27:10;4.70;;;4.30;;
13026;SDS011;6580;42.680;23.324;2022-07-10T08:29:38;3.92;;;3.63;;
13026;SDS011;6580;42.680;23.324;2022-07-10T08:32:05;4.50;;;4.10;;
13026;SDS011;6580;42.680;23.324;2022-07-10T08:34:34;3.80;;;3.50;;
13026;SDS011;6580;42.680;23.324;2022-07-10T08:37:01;3.85;;;3.55;;
13026;SDS011;6580;42.680;23.324;2022-07-10T08:39:28;4.40;;;4.00;;
13026;SDS011;6580;42.680;23.324;2022-07-10T08:41:55;4.28;;;3.97;;
13026;SDS011;6580;42.680;23.324;2022-07-10T08:44:22;4.65;;;3.55;;
13026;SDS011;6580;42.680;23.324;2022-07-10T08:46:50;5.40;;;3.90;;
13026;SDS011;6580;42.680;23.324;2022-07-10T08:49:19;4.28;;;3.53;;
13026;SDS011;6580;42.680;23.324;2022-07-10T08:51:53;4.25;;;3.85;;
13026;SDS011;6580;42.680;23.324;2022-07-10T08:54:25;3.30;;;3.10;;
13026;SDS011;6580;42.680;23.324;2022-07-10T08:56:55;3.72;;;3.42;;
13026;SDS011;6580;42.680;23.324;2022-07-10T08:59:24;4.07;;;3.38;;
13026;SDS011;6580;42.680;23.324;2022-07-10T09:01:54;4.25;;;3.85;;
13026;SDS011;6580;42.680;23.324;2022-07-10T09:04:22;4.32;;;3.40;;
13026;SDS011;6580;42.680;23.324;2022-07-10T09:06:51;3.97;;;3.67;;
13026;SDS011;6580;42.680;23.324;2022-07-10T09:09:19;3.88;;;3.60;;
13026;SDS011;6580;42.680;23.324;2022-07-10T09:11:46;3.60;;;3.30;;
13026;SDS011;6580;42.680;23.324;2022-07-10T09:14:13;3.88;;;3.55;;
13026;SDS011;6580;42.680;23.324;2022-07-10T09:16:42;3.97;;;3.67;;
13026;SDS011;6580;42.680;23.324;2022-07-10T09:19:17;3.65;;;3.45;;
13026;SDS011;6580;42.680;23.324;2022-07-10T09:21:45;4.28;;;3.75;;
13026;SDS011;6580;42.680;23.324;2022-07-10T09:24:13;5.53;;;3.92;;
13026;SDS011;6580;42.680;23.324;2022-07-10T09:26:42;3.78;;;3.53;;
13026;SDS011;6580;42.680;23.324;2022-07-10T09:29:09;4.13;;;3.60;;
13026;SDS011;6580;42.680;23.324;2022-07-10T09:31:48;4.97;;;4.00;;
13026;SDS011;6580;42.680;23.324;2022-07-10T09:34:18;5.50;;;4.03;;
13026;SDS011;6580;42.680;23.324;2022-07-10T09:37:16;3.90;;;3.60;;
13026;SDS011;6580;42.680;23.324;2022-07-10T09:39:51;3.72;;;3.45;;
13026;SDS011;6580;42.680;23.324;2022-07-10T09:42:25;5.15;;;4.63;;
13026;SDS011;6580;42.680;23.324;2022-07-10T09:44:58;3.90;;;3.60;;
13026;SDS011;6580;42.680;23.324;2022-07-10T09:47:42;5.03;;;3.83;;
13026;SDS011;6580;42.680;23.324;2022-07-10T09:50:20;4.22;;;3.28;;
13026;SDS011;6580;42.680;23.324;2022-07-10T09:52:50;4.95;;;4.25;;
13026;SDS011;6580;42.680;23.324;2022-07-10T09:55:19;4.15;;;3.75;;
13026;SDS011;6580;42.680;23.324;2022-07-10T09:57:53;3.75;;;3.35;;
13026;SDS011;6580;42.680;23.324;2022-07-10T10:00:22;5.07;;;3.30;;
13026;SDS011;6580;42.680;23.324;2022-07-10T10:02:53;4.15;;;3.55;;
13026;SDS011;6580;42.680;23.324;2022-07-10T10:05:31;3.60;;;3.20;;
13026;SDS011;6580;42.680;23.324;2022-07-10T10:08:01;3.30;;;3.10;;
13026;SDS011;6580;42.680;23.324;2022-07-10T10:10:33;4.07;;;3.78;;
13026;SDS011;6580;42.680;23.324;2022-07-10T10:13:03;4.10;;;3.80;;
13026;SDS011;6580;42.680;23.324;2022-07-10T10:15:37;3.80;;;3.45;;
13026;SDS011;6580;42.680;23.324;2022-07-10T10:18:05;3.45;;;3.15;;
13026;SDS011;6580;42.680;23.324;2022-07-10T10:20:34;3.17;;;2.97;;
13026;SDS011;6580;42.680;23.324;2022-07-10T10:23:03;4.45;;;4.05;;
13026;SDS011;6580;42.680;23.324;2022-07-10T10:25:32;6.07;;;4.60;;
13026;SDS011;6580;42.680;23.324;2022-07-10T10:27:59;3.80;;;3.50;;
13026;SDS011;6580;42.680;23.324;2022-07-10T10:30:29;3.20;;;2.90;;
13026;SDS011;6580;42.680;23.324;2022-07-10T10:32:58;8.32;;;4.90;;
13026;SDS011;6580;42.680;23.324;2022-07-10T10:35:43;24.00;;;21.88;;
13026;SDS011;6580;42.680;23.324;2022-07-10T10:38:12;9.18;;;8.35;;
13026;SDS011;6580;42.680;23.324;2022-07-10T10:40:39;8.05;;;6.80;;
13026;SDS011;6580;42.680;23.324;2022-07-10T10:43:19;5.90;;;4.57;;
13026;SDS011;6580;42.680;23.324;2022-07-10T10:45:46;4.45;;;4.07;;
13026;SDS011;6580;42.680;23.324;2022-07-10T10:48:14;4.03;;;3.65;;
13026;SDS011;6580;42.680;23.324;2022-07-10T10:50:45;5.88;;;5.35;;
13026;SDS011;6580;42.680;23.324;2022-07-10T10:53:15;4.05;;;3.20;;
13026;SDS011;6580;42.680;23.324;2022-07-10T10:58:46;3.75;;;3.40;;
13026;SDS011;6580;42.680;23.324;2022-07-10T11:01:25;3.50;;;3.20;;
13026;SDS011;6580;42.680;23.324;2022-07-10T11:04:13;5.18;;;3.95;;
13026;SDS011;6580;42.680;23.324;2022-07-10T11:06:42;4.95;;;3.30;;
13026;SDS011;6580;42.680;23.324;2022-07-10T11:09:22;4.85;;;3.42;;
13026;SDS011;6580;42.680;23.324;2022-07-10T11:12:00;4.47;;;3.25;;
13026;SDS011;6580;42.680;23.324;2022-07-10T11:14:28;3.33;;;3.03;;
13026;SDS011;6580;42.680;23.324;2022-07-10T11:16:57;4.70;;;3.40;;
13026;SDS011;6580;42.680;23.324;2022-07-10T11:19:27;3.10;;;2.90;;
13026;SDS011;6580;42.680;23.324;2022-07-10T11:22:11;3.00;;;2.80;;
13026;SDS011;6580;42.680;23.324;2022-07-10T11:25:01;4.43;;;3.08;;
13026;SDS011;6580;42.680;23.324;2022-07-10T11:27:41;3.25;;;2.97;;
13026;SDS011;6580;42.680;23.324;2022-07-10T11:30:42;3.38;;;3.08;;
13026;SDS011;6580;42.680;23.324;2022-07-10T11:33:10;4.03;;;3.13;;
13026;SDS011;6580;42.680;23.324;2022-07-10T11:35:39;3.35;;;2.95;;
13026;SDS011;6580;42.680;23.324;2022-07-10T11:38:09;4.75;;;3.30;;
13026;SDS011;6580;42.680;23.324;2022-07-10T11:40:36;10.25;;;9.25;;
13026;SDS011;6580;42.680;23.324;2022-07-10T11:43:03;3.58;;;3.33;;
13026;SDS011;6580;42.680;23.324;2022-07-10T11:45:33;3.65;;;3.33;;
13026;SDS011;6580;42.680;23.324;2022-07-10T11:48:03;4.40;;;3.75;;
13026;SDS011;6580;42.680;23.324;2022-07-10T11:50:34;3.47;;;3.28;;
13026;SDS011;6580;42.680;23.324;2022-07-10T11:53:02;5.28;;;2.90;;
13026;SDS011;6580;42.680;23.324;2022-07-10T11:55:32;4.60;;;3.20;;
13026;SDS011;6580;42.680;23.324;2022-07-10T11:58:12;3.17;;;2.90;;
13026;SDS011;6580;42.680;23.324;2022-07-10T12:00:39;3.45;;;2.90;;
13026;SDS011;6580;42.680;23.324;2022-07-10T12:03:17;2.92;;;2.63;;
13026;SDS011;6580;42.680;23.324;2022-07-10T12:05:49;3.67;;;2.90;;
13026;SDS011;6580;42.680;23.324;2022-07-10T12:08:16;3.40;;;3.10;;
13026;SDS011;6580;42.680;23.324;2022-07-10T12:10:45;3.95;;;3.40;;
13026;SDS011;6580;42.680;23.324;2022-07-10T12:13:13;4.07;;;3.65;;
13026;SDS011;6580;42.680;23.324;2022-07-10T12:15:41;4.05;;;3.33;;
13026;SDS011;6580;42.680;23.324;2022-07-10T12:18:16;3.08;;;2.80;;
13026;SDS011;6580;42.680;23.324;2022-07-10T12:20:44;2.88;;;2.67;;
13026;SDS011;6580;42.680;23.324;2022-07-10T12:23:12;2.95;;;2.70;;
13026;SDS011;6580;42.680;23.324;2022-07-10T12:25:41;2.72;;;2.60;;
13026;SDS011;6580;42.680;23.324;2022-07-10T12:28:10;7.75;;;7.00;;
13026;SDS011;6580;42.680;23.324;2022-07-10T12:30:39;3.67;;;3.05;;
13026;SDS011;6580;42.680;23.324;2022-07-10T12:33:08;5.38;;;3.05;;
13026;SDS011;6580;42.680;23.324;2022-07-10T12:35:50;3.78;;;3.42;;
13026;SDS011;6580;42.680;23.324;2022-07-10T12:38:20;3.45;;;3.15;;
13026;SDS011;6580;42.680;23.324;2022-07-10T12:40:48;3.65;;;3.35;;
13026;SDS011;6580;42.680;23.324;2022-07-10T12:43:26;3.30;;;2.75;;
13026;SDS011;6580;42.680;23.324;2022-07-10T12:46:12;4.90;;;4.55;;
13026;SDS011;6580;42.680;23.324;2022-07-10T12:48:41;5.50;;;4.38;;
13026;SDS011;6580;42.680;23.324;2022-07-10T12:51:19;2.83;;;2.63;;
13026;SDS011;6580;42.680;23.324;2022-07-10T12:53:50;2.42;;;2.22;;
13026;SDS011;6580;42.680;23.324;2022-07-10T12:56:31;3.47;;;3.17;;
13026;SDS011;6580;42.680;23.324;2022-07-10T12:59:02;3.40;;;3.10;;
13026;SDS011;6580;42.680;23.324;2022-07-10T13:01:39;3.22;;;2.92;;
13026;SDS011;6580;42.680;23.324;2022-07-10T13:04:08;2.95;;;2.75;;
13026;SDS011;6580;42.680;23.324;2022-07-10T13:06:37;2.17;;;2.08;;
13026;SDS011;6580;42.680;23.324;2022-07-10T13:11:48;2.83;;;2.40;;
13026;SDS011;6580;42.680;23.324;2022-07-10T13:14:16;1.92;;;1.65;;
13026;SDS011;6580;42.680;23.324;2022-07-10T13:16:44;2.20;;;2.03;;
13026;SDS011;6580;42.680;23.324;2022-07-10T13:19:11;2.83;;;1.83;;
13026;SDS011;6580;42.680;23.324;2022-07-10T13:21:39;1.90;;;1.80;;
13026;SDS011;6580;42.680;23.324;2022-07-10T13:24:06;2.00;;;1.90;;
13026;SDS011;6580;42.680;23.324;2022-07-10T13:26:33;1.98;;;1.88;;
13026;SDS011;6580;42.680;23.324;2022-07-10T13:29:00;2.15;;;1.98;;
13026;SDS011;6580;42.680;23.324;2022-07-10T13:31:28;1.98;;;1.88;;
13026;SDS011;6580;42.680;23.324;2022-07-10T13:33:55;1.77;;;1.67;;
13026;SDS011;6580;42.680;23.324;2022-07-10T13:36:21;3.22;;;2.10;;
13026;SDS011;6580;42.680;23.324;2022-07-10T13:38:48;3.33;;;2.40;;
13026;SDS011;6580;42.680;23.324;2022-07-10T13:41:17;2.55;;;1.85;;
13026;SDS011;6580;42.680;23.324;2022-07-10T13:43:44;3.60;;;2.35;;
13026;SDS011;6580;42.680;23.324;2022-07-10T13:46:11;2.45;;;2.25;;
13026;SDS011;6580;42.680;23.324;2022-07-10T13:48:40;5.47;;;2.88;;
13026;SDS011;6580;42.680;23.324;2022-07-10T13:51:08;2.70;;;2.50;;
13026;SDS011;6580;42.680;23.324;2022-07-10T13:53:35;2.50;;;2.30;;
13026;SDS011;6580;42.680;23.324;2022-07-10T13:56:03;2.58;;;2.38;;
13026;SDS011;6580;42.680;23.324;2022-07-10T13:58:31;4.65;;;2.65;;
13026;SDS011;6580;42.680;23.324;2022-07-10T14:00:58;2.42;;;2.22;;
13026;SDS011;6580;42.680;23.324;2022-07-10T14:03:25;2.65;;;2.20;;
13026;SDS011;6580;42.680;23.324;2022-07-10T14:05:53;3.63;;;1.85;;
13026;SDS011;6580;42.680;23.324;2022-07-10T14:08:20;3.33;;;2.55;;
13026;SDS011;6580;42.680;23.324;2022-07-10T14:10:47;2.50;;;2.30;;
13026;SDS011;6580;42.680;23.324;2022-07-10T14:13:14;5.03;;;2.20;;
13026;SDS011;6580;42.680;23.324;2022-07-10T14:15:41;1.98;;;1.70;;
13026;SDS011;6580;42.680;23.324;2022-07-10T14:18:09;2.63;;;2.42;;
13026;SDS011;6580;42.680;23.324;2022-07-10T14:20:36;1.98;;;1.88;;
13026;SDS011;6580;42.680;23.324;2022-07-10T14:23:20;2.90;;;2.67;;
13026;SDS011;6580;42.680;23.324;2022-07-10T14:25:48;4.13;;;2.28;;
13026;SDS011;6580;42.680;23.324;2022-07-10T14:28:14;4.03;;;2.45;;
13026;SDS011;6580;42.680;23.324;2022-07-10T14:30:41;5.32;;;4.90;;
13026;SDS011;6580;42.680;23.324;2022-07-10T14:33:08;3.20;;;2.90;;
13026;SDS011;6580;42.680;23.324;2022-07-10T14:35:36;2.30;;;2.10;;
13026;SDS011;6580;42.680;23.324;2022-07-10T14:38:04;2.78;;;2.47;;
13026;SDS011;6580;42.680;23.324;2022-07-10T14:40:32;2.72;;;2.47;;
13026;SDS011;6580;42.680;23.324;2022-07-10T14:42:59;2.55;;;1.92;;
13026;SDS011;6580;42.680;23.324;2022-07-10T14:45:26;2.65;;;2.00;;
13026;SDS011;6580;42.680;23.324;2022-07-10T14:47:53;2.88;;;1.98;;
13026;SDS011;6580;42.680;23.324;2022-07-10T14:50:21;4.18;;;3.83;;
13026;SDS011;6580;42.680;23.324;2022-07-10T14:52:48;4.63;;;3.95;;
13026;SDS011;6580;42.680;23.324;2022-07-10T14:55:15;4.03;;;2.28;;
13026;SDS011;6580;42.680;23.324;2022-07-10T14:57:43;2.90;;;2.67;;